sensor_id;sensor_type;location;lat;lon;timestamp;temperature;humidity
34406;DHT22;20658;45.630;8.886;2022-09-02T00:01:30;21.00;63.90
34406;DHT22;20658;45.630;8.886;2022-09-02T00:04:11;21.00;63.80
34406;DHT22;20658;45.630;8.886;2022-09-02T00:06:47;21.00;63.90
34406;DHT22;20658;45.630;8.886;2022-09-02T00:09:24;21.00;63.80
34406;DHT22;20658;45.630;8.886;2022-09-02T00:11:58;21.10;64.00
34406;DHT22;20658;45.630;8.886;2022-09-02T00:14:34;21.00;64.00
34406;DHT22;20658;45.630;8.886;2022-09-02T00:17:09;21.10;64.00
34406;DHT22;20658;45.630;8.886;2022-09-02T00:19:42;21.00;63.70
34406;DHT22;20658;45.630;8.886;2022-09-02T00:22:16;21.00;64.10
34406;DHT22;20658;45.630;8.886;2022-09-02T00:24:51;21.00;64.20
34406;DHT22;20658;45.630;8.886;2022-09-02T00:27:24;21.00;64.50
34406;DHT22;20658;45.630;8.886;2022-09-02T00:29:57;21.10;64.90
34406;DHT22;20658;45.630;8.886;2022-09-02T00:32:31;21.00;64.90
34406;DHT22;20658;45.630;8.886;2022-09-02T00:34:59;21.00;65.10
34406;DHT22;20658;45.630;8.886;2022-09-02T00:37:33;21.00;65.30
34406;DHT22;20658;45.630;8.886;2022-09-02T00:40:05;21.00;65.20
34406;DHT22;20658;45.630;8.886;2022-09-02T00:42:40;21.00;65.60
34406;DHT22;20658;45.630;8.886;2022-09-02T00:45:13;21.00;65.70
34406;DHT22;20658;45.630;8.886;2022-09-02T00:47:49;21.00;65.90
34406;DHT22;20658;45.630;8.886;2022-09-02T00:50:27;21.00;66.30
34406;DHT22;20658;45.630;8.886;2022-09-02T00:53:06;21.00;66.60
34406;DHT22;20658;45.630;8.886;2022-09-02T00:55:46;21.00;66.70
34406;DHT22;20658;45.630;8.886;2022-09-02T00:58:23;21.00;67.20
34406;DHT22;20658;45.630;8.886;2022-09-02T01:01:00;20.90;67.20
34406;DHT22;20658;45.630;8.886;2022-09-02T01:03:33;20.90;67.30
34406;DHT22;20658;45.630;8.886;2022-09-02T01:06:08;21.00;66.80
34406;DHT22;20658;45.630;8.886;2022-09-02T01:08:46;20.90;67.00
34406;DHT22;20658;45.630;8.886;2022-09-02T01:11:24;20.90;67.00
34406;DHT22;20658;45.630;8.886;2022-09-02T01:14:03;20.90;66.80
34406;DHT22;20658;45.630;8.886;2022-09-02T01:16:40;20.90;67.00
34406;DHT22;20658;45.630;8.886;2022-09-02T01:19:20;20.90;67.10
34406;DHT22;20658;45.630;8.886;2022-09-02T01:21:57;20.90;67.30
34406;DHT22;20658;45.630;8.886;2022-09-02T01:24:30;20.80;67.20
34406;DHT22;20658;45.630;8.886;2022-09-02T01:27:05;20.80;67.40
34406;DHT22;20658;45.630;8.886;2022-09-02T01:29:39;20.80;67.60
34406;DHT22;20658;45.630;8.886;2022-09-02T01:32:13;20.80;67.50
34406;DHT22;20658;45.630;8.886;2022-09-02T01:34:41;20.70;67.90
34406;DHT22;20658;45.630;8.886;2022-09-02T01:37:16;20.70;68.20
34406;DHT22;20658;45.630;8.886;2022-09-02T01:39:51;20.70;68.60
34406;DHT22;20658;45.630;8.886;2022-09-02T01:42:21;20.60;68.70
34406;DHT22;20658;45.630;8.886;2022-09-02T01:44:54;20.60;68.90
34406;DHT22;20658;45.630;8.886;2022-09-02T01:47:28;20.60;69.20
34406;DHT22;20658;45.630;8.886;2022-09-02T01:50:01;20.60;69.60
34406;DHT22;20658;45.630;8.886;2022-09-02T01:52:37;20.50;70.00
34406;DHT22;20658;45.630;8.886;2022-09-02T01:55:10;20.50;70.70
34406;DHT22;20658;45.630;8.886;2022-09-02T01:57:44;20.50;71.70
34406;DHT22;20658;45.630;8.886;2022-09-02T02:00:15;20.40;72.40
34406;DHT22;20658;45.630;8.886;2022-09-02T02:02:49;20.40;73.20
34406;DHT22;20658;45.630;8.886;2022-09-02T02:05:18;20.30;74.40
34406;DHT22;20658;45.630;8.886;2022-09-02T02:07:50;20.20;75.40
34406;DHT22;20658;45.630;8.886;2022-09-02T02:10:24;20.20;75.80
34406;DHT22;20658;45.630;8.886;2022-09-02T02:12:58;20.10;76.40
34406;DHT22;20658;45.630;8.886;2022-09-02T02:15:36;20.10;76.90
34406;DHT22;20658;45.630;8.886;2022-09-02T02:18:05;20.10;77.40
34406;DHT22;20658;45.630;8.886;2022-09-02T02:20:38;20.00;77.80
34406;DHT22;20658;45.630;8.886;2022-09-02T02:23:13;20.10;78.20
34406;DHT22;20658;45.630;8.886;2022-09-02T02:25:43;20.00;78.90
34406;DHT22;20658;45.630;8.886;2022-09-02T02:28:17;20.00;79.80
34406;DHT22;20658;45.630;8.886;2022-09-02T02:30:51;19.90;80.30
34406;DHT22;20658;45.630;8.886;2022-09-02T02:33:26;19.90;80.10
34406;DHT22;20658;45.630;8.886;2022-09-02T02:35:59;19.90;80.40
34406;DHT22;20658;45.630;8.886;2022-09-02T02:38:37;19.90;80.00
34406;DHT22;20658;45.630;8.886;2022-09-02T02:41:11;19.90;79.90
34406;DHT22;20658;45.630;8.886;2022-09-02T02:43:41;19.90;79.90
34406;DHT22;20658;45.630;8.886;2022-09-02T02:46:15;19.90;80.00
34406;DHT22;20658;45.630;8.886;2022-09-02T02:48:45;19.90;80.40
34406;DHT22;20658;45.630;8.886;2022-09-02T02:51:18;19.90;80.60
34406;DHT22;20658;45.630;8.886;2022-09-02T02:53:53;19.90;81.00
34406;DHT22;20658;45.630;8.886;2022-09-02T02:56:22;19.90;84.50
34406;DHT22;20658;45.630;8.886;2022-09-02T02:58:51;19.80;87.50
34406;DHT22;20658;45.630;8.886;2022-09-02T03:01:24;19.70;89.60
34406;DHT22;20658;45.630;8.886;2022-09-02T03:03:58;19.60;90.80
34406;DHT22;20658;45.630;8.886;2022-09-02T03:06:32;19.60;91.50
34406;DHT22;20658;45.630;8.886;2022-09-02T03:09:08;19.60;91.80
34406;DHT22;20658;45.630;8.886;2022-09-02T03:11:37;19.50;92.40
34406;DHT22;20658;45.630;8.886;2022-09-02T03:14:12;19.50;92.70
34406;DHT22;20658;45.630;8.886;2022-09-02T03:16:46;19.50;92.80
34406;DHT22;20658;45.630;8.886;2022-09-02T03:19:16;19.50;92.80
34406;DHT22;20658;45.630;8.886;2022-09-02T03:21:45;19.40;92.80
34406;DHT22;20658;45.630;8.886;2022-09-02T03:24:20;19.50;92.90
34406;DHT22;20658;45.630;8.886;2022-09-02T03:26:55;19.40;92.40
34406;DHT22;20658;45.630;8.886;2022-09-02T03:29:29;19.40;91.80
34406;DHT22;20658;45.630;8.886;2022-09-02T03:32:04;19.40;91.30
34406;DHT22;20658;45.630;8.886;2022-09-02T03:34:33;19.40;90.70
34406;DHT22;20658;45.630;8.886;2022-09-02T03:37:07;19.40;90.20
34406;DHT22;20658;45.630;8.886;2022-09-02T03:39:38;19.40;89.50
34406;DHT22;20658;45.630;8.886;2022-09-02T03:42:07;19.40;89.10
34406;DHT22;20658;45.630;8.886;2022-09-02T03:44:41;19.40;88.80
34406;DHT22;20658;45.630;8.886;2022-09-02T03:47:15;19.40;88.60
34406;DHT22;20658;45.630;8.886;2022-09-02T03:49:47;19.40;88.20
34406;DHT22;20658;45.630;8.886;2022-09-02T03:52:22;19.40;88.00
34406;DHT22;20658;45.630;8.886;2022-09-02T03:54:58;19.40;87.40
34406;DHT22;20658;45.630;8.886;2022-09-02T03:57:28;19.40;86.80
34406;DHT22;20658;45.630;8.886;2022-09-02T04:00:03;19.40;86.00
34406;DHT22;20658;45.630;8.886;2022-09-02T04:02:42;19.30;85.60
34406;DHT22;20658;45.630;8.886;2022-09-02T04:05:18;19.30;85.80
34406;DHT22;20658;45.630;8.886;2022-09-02T04:07:54;19.30;85.80
34406;DHT22;20658;45.630;8.886;2022-09-02T04:10:30;19.30;85.70
34406;DHT22;20658;45.630;8.886;2022-09-02T04:13:04;19.30;85.80
34406;DHT22;20658;45.630;8.886;2022-09-02T04:15:38;19.30;85.80
34406;DHT22;20658;45.630;8.886;2022-09-02T04:18:15;19.20;85.80
34406;DHT22;20658;45.630;8.886;2022-09-02T04:20:50;19.30;85.90
34406;DHT22;20658;45.630;8.886;2022-09-02T04:23:24;19.20;86.50
34406;DHT22;20658;45.630;8.886;2022-09-02T04:26:03;19.20;87.50
34406;DHT22;20658;45.630;8.886;2022-09-02T04:28:39;19.10;88.40
34406;DHT22;20658;45.630;8.886;2022-09-02T04:31:15;19.10;88.80
34406;DHT22;20658;45.630;8.886;2022-09-02T04:33:52;19.00;89.20
34406;DHT22;20658;45.630;8.886;2022-09-02T04:36:28;19.00;89.60
34406;DHT22;20658;45.630;8.886;2022-09-02T04:39:06;18.90;89.90
34406;DHT22;20658;45.630;8.886;2022-09-02T04:41:42;19.00;90.00
34406;DHT22;20658;45.630;8.886;2022-09-02T04:44:16;18.90;90.40
34406;DHT22;20658;45.630;8.886;2022-09-02T04:46:50;18.90;90.70
34406;DHT22;20658;45.630;8.886;2022-09-02T04:49:25;18.90;90.60
34406;DHT22;20658;45.630;8.886;2022-09-02T04:52:02;18.90;90.80
34406;DHT22;20658;45.630;8.886;2022-09-02T04:54:38;18.90;91.90
34406;DHT22;20658;45.630;8.886;2022-09-02T04:57:13;18.80;92.30
34406;DHT22;20658;45.630;8.886;2022-09-02T04:59:46;18.80;92.80
34406;DHT22;20658;45.630;8.886;2022-09-02T05:02:20;18.80;93.10
34406;DHT22;20658;45.630;8.886;2022-09-02T05:04:54;18.80;93.80
34406;DHT22;20658;45.630;8.886;2022-09-02T05:07:34;18.80;94.20
34406;DHT22;20658;45.630;8.886;2022-09-02T05:10:08;18.80;95.00
34406;DHT22;20658;45.630;8.886;2022-09-02T05:12:42;18.80;94.80
34406;DHT22;20658;45.630;8.886;2022-09-02T05:15:17;18.80;95.40
34406;DHT22;20658;45.630;8.886;2022-09-02T05:17:50;18.80;95.80
34406;DHT22;20658;45.630;8.886;2022-09-02T05:20:24;18.80;96.20
34406;DHT22;20658;45.630;8.886;2022-09-02T05:22:59;18.80;96.30
34406;DHT22;20658;45.630;8.886;2022-09-02T05:25:33;18.80;96.60
34406;DHT22;20658;45.630;8.886;2022-09-02T05:28:10;18.80;96.50
34406;DHT22;20658;45.630;8.886;2022-09-02T05:30:45;18.80;96.50
34406;DHT22;20658;45.630;8.886;2022-09-02T05:33:19;18.80;96.20
34406;DHT22;20658;45.630;8.886;2022-09-02T05:35:53;18.90;96.30
34406;DHT22;20658;45.630;8.886;2022-09-02T05:38:28;18.80;96.10
34406;DHT22;20658;45.630;8.886;2022-09-02T05:41:04;18.90;96.10
34406;DHT22;20658;45.630;8.886;2022-09-02T05:43:41;18.80;95.90
34406;DHT22;20658;45.630;8.886;2022-09-02T05:46:19;18.90;95.80
34406;DHT22;20658;45.630;8.886;2022-09-02T05:48:55;18.90;95.80
34406;DHT22;20658;45.630;8.886;2022-09-02T05:51:45;18.90;95.40
34406;DHT22;20658;45.630;8.886;2022-09-02T05:54:26;18.90;95.30
34406;DHT22;20658;45.630;8.886;2022-09-02T05:57:07;19.00;95.10
34406;DHT22;20658;45.630;8.886;2022-09-02T05:59:43;18.90;95.00
34406;DHT22;20658;45.630;8.886;2022-09-02T06:02:18;19.00;94.70
34406;DHT22;20658;45.630;8.886;2022-09-02T06:04:53;19.00;94.60
34406;DHT22;20658;45.630;8.886;2022-09-02T06:07:27;19.10;94.30
34406;DHT22;20658;45.630;8.886;2022-09-02T06:10:00;19.10;94.10
34406;DHT22;20658;45.630;8.886;2022-09-02T06:12:36;19.20;93.70
34406;DHT22;20658;45.630;8.886;2022-09-02T06:15:13;19.20;93.30
34406;DHT22;20658;45.630;8.886;2022-09-02T06:17:47;19.20;93.00
34406;DHT22;20658;45.630;8.886;2022-09-02T06:20:21;19.50;92.60
34406;DHT22;20658;45.630;8.886;2022-09-02T06:22:54;19.80;91.40
34406;DHT22;20658;45.630;8.886;2022-09-02T06:25:28;19.80;91.00
34406;DHT22;20658;45.630;8.886;2022-09-02T06:28:02;20.00;90.20
34406;DHT22;20658;45.630;8.886;2022-09-02T06:30:42;20.50;88.20
34406;DHT22;20658;45.630;8.886;2022-09-02T06:33:22;21.00;85.30
34406;DHT22;20658;45.630;8.886;2022-09-02T06:35:57;21.00;84.40
34406;DHT22;20658;45.630;8.886;2022-09-02T06:38:31;20.90;84.90
34406;DHT22;20658;45.630;8.886;2022-09-02T06:41:10;20.90;84.20
34406;DHT22;20658;45.630;8.886;2022-09-02T06:43:45;21.00;83.80
34406;DHT22;20658;45.630;8.886;2022-09-02T06:46:24;21.00;84.00
34406;DHT22;20658;45.630;8.886;2022-09-02T06:49:04;21.20;83.20
34406;DHT22;20658;45.630;8.886;2022-09-02T06:51:41;21.10;82.90
34406;DHT22;20658;45.630;8.886;2022-09-02T06:54:18;21.30;83.30
34406;DHT22;20658;45.630;8.886;2022-09-02T06:57:03;21.50;81.50
34406;DHT22;20658;45.630;8.886;2022-09-02T06:59:37;21.60;80.00
34406;DHT22;20658;45.630;8.886;2022-09-02T07:02:13;21.70;79.10
34406;DHT22;20658;45.630;8.886;2022-09-02T07:04:47;21.80;78.00
34406;DHT22;20658;45.630;8.886;2022-09-02T07:07:40;21.90;78.10
34406;DHT22;20658;45.630;8.886;2022-09-02T07:10:15;21.90;75.60
34406;DHT22;20658;45.630;8.886;2022-09-02T07:12:52;22.00;75.80
34406;DHT22;20658;45.630;8.886;2022-09-02T07:15:25;22.20;75.30
34406;DHT22;20658;45.630;8.886;2022-09-02T07:18:00;22.50;73.80
34406;DHT22;20658;45.630;8.886;2022-09-02T07:20:36;22.50;71.70
34406;DHT22;20658;45.630;8.886;2022-09-02T07:23:10;22.50;71.00
34406;DHT22;20658;45.630;8.886;2022-09-02T07:25:43;23.00;69.60
34406;DHT22;20658;45.630;8.886;2022-09-02T07:28:18;23.40;66.80
34406;DHT22;20658;45.630;8.886;2022-09-02T07:30:51;23.50;65.80
34406;DHT22;20658;45.630;8.886;2022-09-02T07:33:28;23.70;64.90
34406;DHT22;20658;45.630;8.886;2022-09-02T07:36:02;24.00;62.50
34406;DHT22;20658;45.630;8.886;2022-09-02T07:38:37;24.10;61.10
34406;DHT22;20658;45.630;8.886;2022-09-02T07:41:11;23.90;61.50
34406;DHT22;20658;45.630;8.886;2022-09-02T07:43:45;23.90;62.50
34406;DHT22;20658;45.630;8.886;2022-09-02T07:46:20;23.90;62.50
34406;DHT22;20658;45.630;8.886;2022-09-02T07:48:49;23.90;62.50
34406;DHT22;20658;45.630;8.886;2022-09-02T07:51:23;24.00;62.50
34406;DHT22;20658;45.630;8.886;2022-09-02T07:53:59;24.00;62.20
34406;DHT22;20658;45.630;8.886;2022-09-02T07:56:34;24.20;60.80
34406;DHT22;20658;45.630;8.886;2022-09-02T07:59:08;24.00;61.50
34406;DHT22;20658;45.630;8.886;2022-09-02T08:01:42;23.80;62.00
34406;DHT22;20658;45.630;8.886;2022-09-02T08:04:18;23.60;62.30
34406;DHT22;20658;45.630;8.886;2022-09-02T08:06:54;23.50;62.90
34406;DHT22;20658;45.630;8.886;2022-09-02T08:09:28;23.50;63.20
34406;DHT22;20658;45.630;8.886;2022-09-02T08:12:03;23.70;62.20
34406;DHT22;20658;45.630;8.886;2022-09-02T08:14:37;23.70;60.80
34406;DHT22;20658;45.630;8.886;2022-09-02T08:17:10;23.70;61.30
34406;DHT22;20658;45.630;8.886;2022-09-02T08:19:45;24.00;60.90
34406;DHT22;20658;45.630;8.886;2022-09-02T08:22:18;24.60;59.40
34406;DHT22;20658;45.630;8.886;2022-09-02T08:24:52;25.00;57.00
34406;DHT22;20658;45.630;8.886;2022-09-02T08:27:25;24.50;57.00
34406;DHT22;20658;45.630;8.886;2022-09-02T08:29:59;24.20;58.00
34406;DHT22;20658;45.630;8.886;2022-09-02T08:32:32;24.20;58.60
34406;DHT22;20658;45.630;8.886;2022-09-02T08:35:08;24.10;58.60
34406;DHT22;20658;45.630;8.886;2022-09-02T08:37:42;24.20;58.40
34406;DHT22;20658;45.630;8.886;2022-09-02T08:40:18;24.40;58.00
34406;DHT22;20658;45.630;8.886;2022-09-02T08:42:55;24.40;57.00
34406;DHT22;20658;45.630;8.886;2022-09-02T08:45:31;24.60;56.80
34406;DHT22;20658;45.630;8.886;2022-09-02T08:48:18;24.70;56.40
34406;DHT22;20658;45.630;8.886;2022-09-02T08:50:59;24.90;56.10
34406;DHT22;20658;45.630;8.886;2022-09-02T08:53:43;25.00;54.30
34406;DHT22;20658;45.630;8.886;2022-09-02T08:56:22;24.90;53.90
34406;DHT22;20658;45.630;8.886;2022-09-02T08:58:58;25.00;53.80
34406;DHT22;20658;45.630;8.886;2022-09-02T09:01:47;25.10;53.20
34406;DHT22;20658;45.630;8.886;2022-09-02T09:04:35;25.00;53.10
34406;DHT22;20658;45.630;8.886;2022-09-02T09:07:19;25.10;53.20
34406;DHT22;20658;45.630;8.886;2022-09-02T09:10:04;25.60;52.20
34406;DHT22;20658;45.630;8.886;2022-09-02T09:12:59;26.20;51.50
34406;DHT22;20658;45.630;8.886;2022-09-02T09:15:41;25.90;51.00
34406;DHT22;20658;45.630;8.886;2022-09-02T09:18:19;25.50;51.40
34406;DHT22;20658;45.630;8.886;2022-09-02T09:20:55;25.40;51.70
34406;DHT22;20658;45.630;8.886;2022-09-02T09:23:32;25.40;51.90
34406;DHT22;20658;45.630;8.886;2022-09-02T09:26:09;25.40;51.70
34406;DHT22;20658;45.630;8.886;2022-09-02T09:28:46;25.40;51.30
34406;DHT22;20658;45.630;8.886;2022-09-02T09:31:21;25.50;51.20
34406;DHT22;20658;45.630;8.886;2022-09-02T09:33:58;25.60;50.70
34406;DHT22;20658;45.630;8.886;2022-09-02T09:36:43;25.60;50.80
34406;DHT22;20658;45.630;8.886;2022-09-02T09:39:22;26.00;50.70
34406;DHT22;20658;45.630;8.886;2022-09-02T09:41:59;26.60;48.80
34406;DHT22;20658;45.630;8.886;2022-09-02T09:44:40;26.80;47.10
34406;DHT22;20658;45.630;8.886;2022-09-02T09:47:18;27.00;46.90
34406;DHT22;20658;45.630;8.886;2022-09-02T09:50:08;27.20;46.30
34406;DHT22;20658;45.630;8.886;2022-09-02T09:52:43;27.50;45.60
34406;DHT22;20658;45.630;8.886;2022-09-02T09:55:20;27.60;45.60
34406;DHT22;20658;45.630;8.886;2022-09-02T09:58:07;27.70;44.70
34406;DHT22;20658;45.630;8.886;2022-09-02T10:00:41;27.80;43.70
34406;DHT22;20658;45.630;8.886;2022-09-02T10:03:22;28.00;44.00
34406;DHT22;20658;45.630;8.886;2022-09-02T10:05:58;28.30;42.70
34406;DHT22;20658;45.630;8.886;2022-09-02T10:08:52;28.00;43.20
34406;DHT22;20658;45.630;8.886;2022-09-02T10:11:30;27.90;43.50
34406;DHT22;20658;45.630;8.886;2022-09-02T10:14:07;27.80;43.10
34406;DHT22;20658;45.630;8.886;2022-09-02T10:16:53;28.00;43.70
34406;DHT22;20658;45.630;8.886;2022-09-02T10:19:38;27.70;43.30
34406;DHT22;20658;45.630;8.886;2022-09-02T10:22:35;27.30;44.10
34406;DHT22;20658;45.630;8.886;2022-09-02T10:25:20;27.30;44.30
34406;DHT22;20658;45.630;8.886;2022-09-02T10:28:03;27.50;44.10
34406;DHT22;20658;45.630;8.886;2022-09-02T10:30:44;27.50;43.50
34406;DHT22;20658;45.630;8.886;2022-09-02T10:33:32;27.60;43.80
34406;DHT22;20658;45.630;8.886;2022-09-02T10:36:15;28.10;43.90
34406;DHT22;20658;45.630;8.886;2022-09-02T10:38:50;28.30;42.90
34406;DHT22;20658;45.630;8.886;2022-09-02T10:41:32;28.00;42.90
34406;DHT22;20658;45.630;8.886;2022-09-02T10:44:31;27.70;42.80
34406;DHT22;20658;45.630;8.886;2022-09-02T10:47:12;27.80;43.90
34406;DHT22;20658;45.630;8.886;2022-09-02T10:50:01;28.40;42.90
34406;DHT22;20658;45.630;8.886;2022-09-02T10:55:51;27.70;43.00
34406;DHT22;20658;45.630;8.886;2022-09-02T10:58:38;27.40;43.90
34406;DHT22;20658;45.630;8.886;2022-09-02T11:01:21;27.20;43.80
34406;DHT22;20658;45.630;8.886;2022-09-02T11:04:07;27.20;44.40
34406;DHT22;20658;45.630;8.886;2022-09-02T11:06:43;27.10;45.10
34406;DHT22;20658;45.630;8.886;2022-09-02T11:09:25;27.30;45.10
34406;DHT22;20658;45.630;8.886;2022-09-02T11:12:07;27.80;43.80
34406;DHT22;20658;45.630;8.886;2022-09-02T11:14:52;27.70;43.30
34406;DHT22;20658;45.630;8.886;2022-09-02T11:17:36;28.10;43.50
34406;DHT22;20658;45.630;8.886;2022-09-02T11:20:23;27.70;43.00
34406;DHT22;20658;45.630;8.886;2022-09-02T11:23:05;27.80;43.40
34406;DHT22;20658;45.630;8.886;2022-09-02T11:25:45;28.00;43.80
34406;DHT22;20658;45.630;8.886;2022-09-02T11:28:29;28.40;42.90
34406;DHT22;20658;45.630;8.886;2022-09-02T11:31:09;28.50;42.90
34406;DHT22;20658;45.630;8.886;2022-09-02T11:33:53;28.70;41.80
34406;DHT22;20658;45.630;8.886;2022-09-02T11:36:29;29.20;41.40
34406;DHT22;20658;45.630;8.886;2022-09-02T11:39:07;29.20;40.70
34406;DHT22;20658;45.630;8.886;2022-09-02T11:41:55;28.70;40.70
34406;DHT22;20658;45.630;8.886;2022-09-02T11:45:15;29.20;40.90
34406;DHT22;20658;45.630;8.886;2022-09-02T11:48:19;28.90;40.10
34406;DHT22;20658;45.630;8.886;2022-09-02T11:51:32;27.90;41.70
34406;DHT22;20658;45.630;8.886;2022-09-02T11:54:15;28.20;41.90
34406;DHT22;20658;45.630;8.886;2022-09-02T11:56:55;28.80;40.70
34406;DHT22;20658;45.630;8.886;2022-09-02T12:03:08;28.70;40.40
34406;DHT22;20658;45.630;8.886;2022-09-02T12:05:49;29.10;41.30
34406;DHT22;20658;45.630;8.886;2022-09-02T12:09:04;29.70;39.60
34406;DHT22;20658;45.630;8.886;2022-09-02T12:21:08;30.50;37.80
34406;DHT22;20658;45.630;8.886;2022-09-02T12:24:20;30.70;37.10
34406;DHT22;20658;45.630;8.886;2022-09-02T12:27:24;30.80;37.50
34406;DHT22;20658;45.630;8.886;2022-09-02T12:30:00;30.60;37.70
34406;DHT22;20658;45.630;8.886;2022-09-02T12:33:02;30.90;37.30
34406;DHT22;20658;45.630;8.886;2022-09-02T12:35:53;31.00;37.10
34406;DHT22;20658;45.630;8.886;2022-09-02T12:38:32;30.40;37.70
34406;DHT22;20658;45.630;8.886;2022-09-02T12:41:23;30.50;37.70
34406;DHT22;20658;45.630;8.886;2022-09-02T12:44:25;30.70;37.50
34406;DHT22;20658;45.630;8.886;2022-09-02T12:47:03;30.20;37.90
34406;DHT22;20658;45.630;8.886;2022-09-02T12:49:51;29.90;37.60
34406;DHT22;20658;45.630;8.886;2022-09-02T12:52:43;29.50;38.40
34406;DHT22;20658;45.630;8.886;2022-09-02T12:55:22;29.90;38.50
34406;DHT22;20658;45.630;8.886;2022-09-02T12:58:07;29.70;38.40
34406;DHT22;20658;45.630;8.886;2022-09-02T13:00:55;29.60;38.60
34406;DHT22;20658;45.630;8.886;2022-09-02T13:03:50;29.70;38.80
34406;DHT22;20658;45.630;8.886;2022-09-02T13:07:02;29.60;38.90
34406;DHT22;20658;45.630;8.886;2022-09-02T13:10:14;29.40;38.40
34406;DHT22;20658;45.630;8.886;2022-09-02T13:13:20;28.70;39.20
34406;DHT22;20658;45.630;8.886;2022-09-02T13:16:15;28.70;39.50
34406;DHT22;20658;45.630;8.886;2022-09-02T13:22:28;28.80;39.20
34406;DHT22;20658;45.630;8.886;2022-09-02T13:25:36;28.50;40.30
34406;DHT22;20658;45.630;8.886;2022-09-02T13:29:00;28.60;40.20
34406;DHT22;20658;45.630;8.886;2022-09-02T13:31:58;28.90;40.00
34406;DHT22;20658;45.630;8.886;2022-09-02T13:34:33;29.00;40.20
34406;DHT22;20658;45.630;8.886;2022-09-02T13:37:26;28.80;39.60
34406;DHT22;20658;45.630;8.886;2022-09-02T13:40:06;28.90;39.20
34406;DHT22;20658;45.630;8.886;2022-09-02T13:42:51;29.00;39.90
34406;DHT22;20658;45.630;8.886;2022-09-02T13:45:28;29.20;39.80
34406;DHT22;20658;45.630;8.886;2022-09-02T13:48:07;29.30;38.80
34406;DHT22;20658;45.630;8.886;2022-09-02T13:50:44;29.50;38.80
34406;DHT22;20658;45.630;8.886;2022-09-02T13:53:23;29.90;38.10
34406;DHT22;20658;45.630;8.886;2022-09-02T13:56:01;29.90;37.30
34406;DHT22;20658;45.630;8.886;2022-09-02T13:58:37;30.00;38.20
34406;DHT22;20658;45.630;8.886;2022-09-02T14:01:20;30.00;38.40
34406;DHT22;20658;45.630;8.886;2022-09-02T14:03:57;29.60;38.50
34406;DHT22;20658;45.630;8.886;2022-09-02T14:06:34;29.30;39.20
34406;DHT22;20658;45.630;8.886;2022-09-02T14:09:17;29.50;39.00
34406;DHT22;20658;45.630;8.886;2022-09-02T14:11:53;29.70;38.40
34406;DHT22;20658;45.630;8.886;2022-09-02T14:14:27;29.50;38.70
34406;DHT22;20658;45.630;8.886;2022-09-02T14:17:19;29.50;38.50
34406;DHT22;20658;45.630;8.886;2022-09-02T14:20:17;29.40;38.80
34406;DHT22;20658;45.630;8.886;2022-09-02T14:22:52;29.50;38.80
34406;DHT22;20658;45.630;8.886;2022-09-02T14:25:30;30.00;38.80
34406;DHT22;20658;45.630;8.886;2022-09-02T14:28:09;30.40;37.90
34406;DHT22;20658;45.630;8.886;2022-09-02T14:30:56;30.50;37.00
34406;DHT22;20658;45.630;8.886;2022-09-02T14:33:41;30.60;37.30
34406;DHT22;20658;45.630;8.886;2022-09-02T14:36:31;30.70;37.30
34406;DHT22;20658;45.630;8.886;2022-09-02T14:39:13;30.90;36.90
34406;DHT22;20658;45.630;8.886;2022-09-02T14:41:51;30.80;36.50
34406;DHT22;20658;45.630;8.886;2022-09-02T14:44:29;30.50;36.80
34406;DHT22;20658;45.630;8.886;2022-09-02T14:47:06;30.10;37.60
34406;DHT22;20658;45.630;8.886;2022-09-02T14:49:49;29.90;37.50
34406;DHT22;20658;45.630;8.886;2022-09-02T14:52:26;29.40;38.40
34406;DHT22;20658;45.630;8.886;2022-09-02T14:55:01;29.00;39.30
34406;DHT22;20658;45.630;8.886;2022-09-02T14:57:36;28.70;40.20
34406;DHT22;20658;45.630;8.886;2022-09-02T15:00:09;28.60;40.60
34406;DHT22;20658;45.630;8.886;2022-09-02T15:02:45;28.80;40.40
34406;DHT22;20658;45.630;8.886;2022-09-02T15:05:20;29.20;40.00
34406;DHT22;20658;45.630;8.886;2022-09-02T15:07:55;29.70;38.90
34406;DHT22;20658;45.630;8.886;2022-09-02T15:10:28;30.10;38.80
34406;DHT22;20658;45.630;8.886;2022-09-02T15:13:04;30.40;38.00
34406;DHT22;20658;45.630;8.886;2022-09-02T15:15:39;30.00;38.80
34406;DHT22;20658;45.630;8.886;2022-09-02T15:18:13;30.00;39.10
34406;DHT22;20658;45.630;8.886;2022-09-02T15:20:48;30.10;38.90
34406;DHT22;20658;45.630;8.886;2022-09-02T15:23:21;30.00;38.70
34406;DHT22;20658;45.630;8.886;2022-09-02T15:25:55;29.50;39.00
34406;DHT22;20658;45.630;8.886;2022-09-02T15:28:28;29.20;39.90
34406;DHT22;20658;45.630;8.886;2022-09-02T15:31:01;28.90;40.10
34406;DHT22;20658;45.630;8.886;2022-09-02T15:33:35;28.70;40.30
34406;DHT22;20658;45.630;8.886;2022-09-02T15:36:11;28.50;41.00
34406;DHT22;20658;45.630;8.886;2022-09-02T15:38:46;28.50;41.60
34406;DHT22;20658;45.630;8.886;2022-09-02T15:41:21;28.50;41.60
34406;DHT22;20658;45.630;8.886;2022-09-02T15:43:56;28.50;41.90
34406;DHT22;20658;45.630;8.886;2022-09-02T15:46:31;28.40;42.10
34406;DHT22;20658;45.630;8.886;2022-09-02T15:49:06;28.30;42.20
34406;DHT22;20658;45.630;8.886;2022-09-02T15:51:44;28.40;42.30
34406;DHT22;20658;45.630;8.886;2022-09-02T15:54:19;28.50;41.90
34406;DHT22;20658;45.630;8.886;2022-09-02T15:56:55;28.80;41.60
34406;DHT22;20658;45.630;8.886;2022-09-02T15:59:29;28.90;41.70
34406;DHT22;20658;45.630;8.886;2022-09-02T16:02:02;28.80;41.80
34406;DHT22;20658;45.630;8.886;2022-09-02T16:04:36;28.70;42.10
34406;DHT22;20658;45.630;8.886;2022-09-02T16:07:11;28.60;42.30
34406;DHT22;20658;45.630;8.886;2022-09-02T16:09:44;28.60;42.70
34406;DHT22;20658;45.630;8.886;2022-09-02T16:12:18;28.30;43.30
34406;DHT22;20658;45.630;8.886;2022-09-02T16:14:51;28.10;44.00
34406;DHT22;20658;45.630;8.886;2022-09-02T16:17:25;27.90;44.10
34406;DHT22;20658;45.630;8.886;2022-09-02T16:19:58;27.90;44.10
34406;DHT22;20658;45.630;8.886;2022-09-02T16:22:33;27.90;44.50
34406;DHT22;20658;45.630;8.886;2022-09-02T16:25:08;27.70;45.00
34406;DHT22;20658;45.630;8.886;2022-09-02T16:27:41;27.60;45.40
34406;DHT22;20658;45.630;8.886;2022-09-02T16:30:24;27.50;45.80
34406;DHT22;20658;45.630;8.886;2022-09-02T16:32:58;27.40;45.90
34406;DHT22;20658;45.630;8.886;2022-09-02T16:35:31;27.40;46.00
34406;DHT22;20658;45.630;8.886;2022-09-02T16:38:06;27.40;46.20
34406;DHT22;20658;45.630;8.886;2022-09-02T16:40:40;27.30;46.20
34406;DHT22;20658;45.630;8.886;2022-09-02T16:43:22;27.20;46.60
34406;DHT22;20658;45.630;8.886;2022-09-02T16:45:58;26.90;46.60
34406;DHT22;20658;45.630;8.886;2022-09-02T16:48:33;26.80;47.20
34406;DHT22;20658;45.630;8.886;2022-09-02T16:51:07;26.70;47.50
34406;DHT22;20658;45.630;8.886;2022-09-02T16:53:42;26.50;48.00
34406;DHT22;20658;45.630;8.886;2022-09-02T16:56:16;26.30;48.40
34406;DHT22;20658;45.630;8.886;2022-09-02T16:58:52;26.10;49.00